15°C Temp
13°C Dewpoint
88% Humidity
Temperature
10 KM/H
6 MPH
5 KTS
110°
East South
East

Wind Speed
Mostly Scattered
Clouds
Pressure 1019.98 (hPa) - 30.12 (in)
Visibility 6.0 (mi) - 9.7 (km)

Current Conditions
LGAV
Location 35(km)
Metar :LGAV 282120Z 11005KT 9999 SCT020 BKN045 15/13 Q1020 NOSIG
Wed 28th February 23:20 pm

Airport
  Metar Aviation API Data Provided by https://www.checkwx.com/ PHP scripts by weather34.com ©2024